createdAt,value
2019-04-07T00:03:41.108Z,89.60
2019-04-07T00:06:07.499Z,89.47
2019-04-07T00:08:35.512Z,89.23
2019-04-07T00:11:02.315Z,89.25
2019-04-07T00:13:30.960Z,88.85
2019-04-07T00:15:58.976Z,89.59
2019-04-07T00:18:27.117Z,89.23
2019-04-07T00:20:55.214Z,89.41
2019-04-07T00:23:22.780Z,89.69
2019-04-07T00:25:49.085Z,89.13
2019-04-07T00:28:15.359Z,89.87
2019-04-07T00:30:41.549Z,90.01
2019-04-07T00:33:07.774Z,89.79
2019-04-07T00:35:34.026Z,90.45
2019-04-07T00:38:00.607Z,90.42
2019-04-07T00:40:29.342Z,90.57
2019-04-07T00:42:56.878Z,90.64
2019-04-07T00:45:23.119Z,90.20
2019-04-07T00:47:49.399Z,89.83
2019-04-07T00:50:15.489Z,90.09
2019-04-07T00:52:41.608Z,90.02
2019-04-07T00:55:07.851Z,89.96
2019-04-07T00:57:34.076Z,90.41
2019-04-07T01:00:00.504Z,90.12
2019-04-07T01:02:26.823Z,90.37
2019-04-07T01:04:53.057Z,90.15
2019-04-07T01:07:19.299Z,89.84
2019-04-07T01:09:45.534Z,90.29
2019-04-07T01:12:19.291Z,90.23
2019-04-07T01:14:46.952Z,90.22
2019-04-07T01:17:13.743Z,90.24
2019-04-07T01:19:41.539Z,89.97
2019-04-07T01:22:07.773Z,90.09
2019-04-07T01:24:34.149Z,89.99
2019-04-07T01:27:00.367Z,90.09
2019-04-07T01:29:26.711Z,89.93
2019-04-07T01:31:53.303Z,89.97
2019-04-07T01:34:21.220Z,90.07
2019-04-07T01:36:48.041Z,90.07
2019-04-07T01:39:16.112Z,89.85
2019-04-07T01:42:03.895Z,89.50
2019-04-07T01:44:50.591Z,89.43
2019-04-07T01:47:36.987Z,89.69
2019-04-07T01:53:32.185Z,90.56
2019-04-07T01:56:18.358Z,90.54
2019-04-07T01:59:04.851Z,89.48
2019-04-07T02:01:50.824Z,90.49
2019-04-07T02:04:37.450Z,89.49
2019-04-07T02:07:23.801Z,89.85
2019-04-07T02:10:09.842Z,90.55
2019-04-07T02:12:55.827Z,90.96
2019-04-07T02:15:42.161Z,90.39
2019-04-07T02:18:28.840Z,90.58
2019-04-07T02:23:49.404Z,90.04
2019-04-07T02:26:35.487Z,90.70
2019-04-07T02:29:21.943Z,90.37
2019-04-07T02:32:08.134Z,90.65
2019-04-07T02:34:54.192Z,91.65
2019-04-07T02:37:41.001Z,91.39
2019-04-07T02:40:28.458Z,92.06
2019-04-07T02:43:14.606Z,92.35
2019-04-07T02:46:00.632Z,92.32
2019-04-07T02:51:24.338Z,93.09
2019-04-07T02:54:10.344Z,92.99
2019-04-07T02:56:56.324Z,93.56
2019-04-07T02:59:43.092Z,93.47
2019-04-07T03:02:30.362Z,93.86
2019-04-07T03:05:16.840Z,94.11
2019-04-07T03:08:03.845Z,93.39
2019-04-07T03:10:49.936Z,93.11
2019-04-07T03:16:24.393Z,93.11
2019-04-07T03:19:10.440Z,93.77
2019-04-07T03:24:30.831Z,92.84
2019-04-07T03:27:17.864Z,92.91
2019-04-07T03:32:40.350Z,92.86
2019-04-07T03:38:20.504Z,92.44
2019-04-07T03:41:07.307Z,92.57
2019-04-07T03:43:53.279Z,92.18
2019-04-07T03:46:39.301Z,92.21
2019-04-07T03:49:25.426Z,92.83
2019-04-07T03:52:11.833Z,92.48
2019-04-07T03:54:58.758Z,92.00
2019-04-07T03:57:44.897Z,92.07
2019-04-07T04:01:10.405Z,91.76
2019-04-07T04:03:56.687Z,92.24
2019-04-07T04:06:42.694Z,93.25
2019-04-07T04:09:28.678Z,93.74
2019-04-07T04:12:15.053Z,92.82
2019-04-07T04:15:01.783Z,92.67
2019-04-07T04:17:28.407Z,92.39
2019-04-07T04:19:55.202Z,93.40
2019-04-07T04:22:22.987Z,92.80
2019-04-07T04:25:09.066Z,92.19
2019-04-07T04:27:48.649Z,92.28
2019-04-07T04:30:15.007Z,92.30
2019-04-07T04:32:41.477Z,92.12
2019-04-07T04:35:08.406Z,92.58
2019-04-07T04:37:42.684Z,92.25
2019-04-07T04:40:25.791Z,91.97
2019-04-07T04:42:52.194Z,91.67
2019-04-07T04:45:18.456Z,92.23
2019-04-07T04:47:44.946Z,92.01
2019-04-07T04:50:12.981Z,92.01
2019-04-07T04:52:39.225Z,91.74
2019-04-07T04:55:05.507Z,91.17
2019-04-07T04:57:32.103Z,91.09
2019-04-07T04:59:59.855Z,91.11
2019-04-07T05:02:27.496Z,91.19
2019-04-07T05:04:54.260Z,91.26
2019-04-07T05:07:20.928Z,90.84
2019-04-07T05:09:52.607Z,90.75
2019-04-07T05:12:16.733Z,90.52
2019-04-07T05:14:42.971Z,90.08
2019-04-07T05:17:09.964Z,89.69
2019-04-07T05:19:37.399Z,89.61
2019-04-07T05:22:03.604Z,89.82
2019-04-07T05:24:30.152Z,89.90
2019-04-07T05:26:56.265Z,90.00
2019-04-07T05:29:22.380Z,89.93
2019-04-07T05:31:49.192Z,89.81
2019-04-07T05:34:20.553Z,89.86
2019-04-07T05:37:04.877Z,89.93
2019-04-07T05:39:31.711Z,89.66
2019-04-07T05:44:34.431Z,89.72
2019-04-07T05:47:00.746Z,89.73
2019-04-07T05:49:27.262Z,89.75
2019-04-07T05:51:53.523Z,89.94
2019-04-07T05:54:20.848Z,89.97
2019-04-07T05:56:47.922Z,90.09
2019-04-07T05:59:14.766Z,90.12
2019-04-07T06:01:42.293Z,90.08
2019-04-07T06:04:08.896Z,90.03
2019-04-07T06:06:37.734Z,89.89
2019-04-07T06:12:19.270Z,89.00
2019-04-07T06:15:08.211Z,88.56
2019-04-07T06:17:34.659Z,88.23
2019-04-07T06:20:01.471Z,87.67
2019-04-07T06:22:29.314Z,87.09
2019-04-07T06:24:56.021Z,86.92
2019-04-07T06:27:24.049Z,86.14
2019-04-07T06:29:50.275Z,85.80
2019-04-07T06:32:16.659Z,85.63
2019-04-07T06:34:44.188Z,85.45
2019-04-07T06:37:11.095Z,85.37
2019-04-07T06:39:37.440Z,85.00
2019-04-07T06:42:03.607Z,85.31
2019-04-07T06:44:30.106Z,85.22
2019-04-07T06:49:52.070Z,85.07
2019-04-07T06:55:27.979Z,83.22
2019-04-07T06:58:14.046Z,82.68
2019-04-07T07:01:02.325Z,81.21
2019-04-07T07:06:35.649Z,79.31
2019-04-07T07:09:25.823Z,79.13
2019-04-07T07:14:50.832Z,79.25
2019-04-07T07:17:37.635Z,79.08
2019-04-07T07:25:38.614Z,72.79
2019-04-07T07:28:04.847Z,72.77
2019-04-07T07:30:31.553Z,73.56
2019-04-07T07:32:59.680Z,74.76
2019-04-07T07:35:27.391Z,74.20
2019-04-07T07:37:57.889Z,74.13
2019-04-07T07:40:22.191Z,74.55
2019-04-07T07:42:51.011Z,75.23
2019-04-07T07:45:18.697Z,74.57
2019-04-07T07:47:44.978Z,73.71
2019-04-07T07:50:11.366Z,71.49
2019-04-07T07:52:39.893Z,70.78
2019-04-07T07:55:07.514Z,71.77
2019-04-07T07:57:33.853Z,71.36
2019-04-07T08:00:00.429Z,70.39
2019-04-07T08:02:30.610Z,71.13
2019-04-07T08:04:57.885Z,71.27
2019-04-07T08:07:24.737Z,72.22
2019-04-07T08:09:53.793Z,70.87
2019-04-07T08:12:19.123Z,69.11
2019-04-07T08:14:49.749Z,69.46
2019-04-07T08:17:13.729Z,69.31
2019-04-07T08:19:42.094Z,69.11
2019-04-07T08:24:38.175Z,69.25
2019-04-07T08:27:05.134Z,69.13
2019-04-07T08:29:33.317Z,68.77
2019-04-07T08:32:00.702Z,69.21
2019-04-07T08:34:30.531Z,68.97
2019-04-07T08:36:55.104Z,69.25
2019-04-07T08:39:25.613Z,69.12
2019-04-07T08:41:49.503Z,68.17
2019-04-07T08:44:16.154Z,68.10
2019-04-07T08:46:44.453Z,66.98
2019-04-07T08:49:12.778Z,67.65
2019-04-07T08:51:40.437Z,67.88
2019-04-07T08:54:07.255Z,67.49
2019-04-07T08:56:34.871Z,67.72
2019-04-07T08:59:01.113Z,67.07
2019-04-07T09:01:29.627Z,66.46
2019-04-07T09:03:56.061Z,66.38
2019-04-07T09:06:27.264Z,66.76
2019-04-07T09:08:52.128Z,67.52
2019-04-07T09:16:54.245Z,66.41
2019-04-07T09:19:41.656Z,66.66
2019-04-07T09:22:30.672Z,65.47
2019-04-07T09:27:52.281Z,66.08
2019-04-07T09:36:00.704Z,66.85
2019-04-07T09:41:23.507Z,67.26
2019-04-07T09:44:09.165Z,67.33
2019-04-07T09:49:48.154Z,67.40
2019-04-07T09:52:31.856Z,67.98
2019-04-07T09:57:57.738Z,67.97
2019-04-07T10:00:44.346Z,67.68
2019-04-07T10:03:30.342Z,67.53
2019-04-07T10:06:16.787Z,66.87
2019-04-07T10:09:03.337Z,67.16
2019-04-07T10:11:50.786Z,67.11
2019-04-07T10:14:37.526Z,67.17
2019-04-07T10:20:01.011Z,66.92
2019-04-07T10:22:47.360Z,66.47
2019-04-07T10:30:56.599Z,67.03
2019-04-07T10:33:43.068Z,67.38
2019-04-07T10:36:29.098Z,68.09
2019-04-07T10:39:15.305Z,68.72
2019-04-07T10:42:01.505Z,68.89
2019-04-07T10:44:47.939Z,68.87
2019-04-07T10:47:34.704Z,69.64
2019-04-07T10:50:21.088Z,68.35
2019-04-07T10:53:08.174Z,67.97
2019-04-07T10:55:55.024Z,68.45
2019-04-07T10:58:41.469Z,68.45
2019-04-07T11:01:27.497Z,69.67
2019-04-07T11:04:13.853Z,69.29
2019-04-07T11:06:59.887Z,69.74
2019-04-07T11:09:45.913Z,68.87
2019-04-07T11:12:31.864Z,68.25
2019-04-07T11:15:18.455Z,68.40
2019-04-07T11:18:04.470Z,68.03
2019-04-07T11:24:03.972Z,68.21
2019-04-07T11:26:50.009Z,67.45
2019-04-07T11:32:24.166Z,67.24
2019-04-07T11:35:10.278Z,67.16
2019-04-07T11:37:56.272Z,67.18
2019-04-07T11:40:48.558Z,67.75
2019-04-07T11:43:30.467Z,67.32
2019-04-07T11:46:16.563Z,68.09
2019-04-07T11:49:02.570Z,68.14
2019-04-07T11:51:48.951Z,67.74
2019-04-07T11:54:35.703Z,67.04
2019-04-07T11:57:22.444Z,67.22
2019-04-07T12:00:08.678Z,67.59
2019-04-07T12:02:55.558Z,68.21
2019-04-07T12:05:42.435Z,68.46
2019-04-07T12:08:33.559Z,68.35
2019-04-07T12:19:45.164Z,68.68
2019-04-07T12:25:19.016Z,68.56
2019-04-07T12:28:05.480Z,69.21
2019-04-07T12:30:52.865Z,68.87
2019-04-07T12:33:40.211Z,69.92
2019-04-07T12:39:00.170Z,69.11
2019-04-07T12:44:20.184Z,69.50
2019-04-07T12:47:06.231Z,70.00
2019-04-07T12:55:42.132Z,70.04
2019-04-07T13:01:09.299Z,70.71
2019-04-07T13:03:50.122Z,70.39
2019-04-07T13:06:38.523Z,70.20
2019-04-07T13:14:57.324Z,70.64
2019-04-07T13:23:25.215Z,71.24
2019-04-07T13:26:12.054Z,71.09
2019-04-07T13:31:32.898Z,71.93
2019-04-07T13:34:19.955Z,72.03
2019-04-07T13:39:41.889Z,71.58
2019-04-07T13:42:28.474Z,71.03
2019-04-07T13:51:00.045Z,71.73
2019-04-07T13:53:46.495Z,71.98
2019-04-07T13:59:20.414Z,71.38
2019-04-07T14:02:06.470Z,71.46
2019-04-07T14:04:54.005Z,71.26
2019-04-07T14:13:04.742Z,71.51
2019-04-07T14:15:49.666Z,71.21
2019-04-07T14:18:35.685Z,71.54
2019-04-07T14:21:21.676Z,71.50
2019-04-07T14:24:08.196Z,71.47
2019-04-07T14:26:54.994Z,71.58
2019-04-07T14:32:15.383Z,71.68
2019-04-07T14:35:02.342Z,71.48
2019-04-07T14:43:15.861Z,71.44
2019-04-07T14:46:02.189Z,71.45
2019-04-07T14:48:49.081Z,71.82
2019-04-07T14:51:35.197Z,71.57
2019-04-07T14:54:21.186Z,71.46
2019-04-07T14:57:08.834Z,71.50
2019-04-07T14:59:56.011Z,71.93
2019-04-07T15:05:31.014Z,71.99
2019-04-07T15:08:17.557Z,72.78
2019-04-07T15:11:03.642Z,72.94
2019-04-07T15:16:17.499Z,72.81
2019-04-07T15:18:44.598Z,73.66
2019-04-07T15:21:11.896Z,73.59
2019-04-07T15:23:38.145Z,73.45
2019-04-07T15:26:05.276Z,73.61
2019-04-07T15:28:33.190Z,74.15
2019-04-07T15:31:00.970Z,73.52
2019-04-07T15:33:30.951Z,73.62
2019-04-07T15:35:55.408Z,74.17
2019-04-07T15:38:24.816Z,73.61
2019-04-07T15:40:50.647Z,73.92
2019-04-07T15:43:19.161Z,74.37
2019-04-07T15:45:47.057Z,74.60
2019-04-07T15:48:15.139Z,74.33
2019-04-07T15:50:41.738Z,74.46
2019-04-07T15:53:11.464Z,74.77
2019-04-07T15:55:47.667Z,74.39
2019-04-07T15:58:05.819Z,74.83
2019-04-07T16:00:34.785Z,74.87
2019-04-07T16:03:00.229Z,75.02
2019-04-07T16:05:26.753Z,75.07
2019-04-07T16:07:55.422Z,75.58
2019-04-07T16:10:23.948Z,75.71
2019-04-07T16:12:52.838Z,74.90
2019-04-07T16:15:19.557Z,74.64
2019-04-07T16:17:47.619Z,74.68
2019-04-07T16:23:18.341Z,75.20
2019-04-07T16:25:44.356Z,75.41
2019-04-07T16:28:13.621Z,75.31
2019-04-07T16:30:39.445Z,75.80
2019-04-07T16:33:07.699Z,75.65
2019-04-07T16:35:35.161Z,76.21
2019-04-07T16:38:02.492Z,74.51
2019-04-07T16:40:29.573Z,74.74
2019-04-07T16:43:09.156Z,75.11
2019-04-07T16:45:23.973Z,75.31
2019-04-07T16:47:51.088Z,75.61
2019-04-07T16:50:20.297Z,75.92
2019-04-07T16:52:47.114Z,75.59
2019-04-07T16:55:35.460Z,75.47
2019-04-07T16:58:02.357Z,75.87
2019-04-07T17:00:30.084Z,76.04
2019-04-07T17:02:56.917Z,77.15
2019-04-07T17:05:25.598Z,76.95
2019-04-07T17:07:55.417Z,77.27
2019-04-07T17:10:21.185Z,77.77
2019-04-07T17:12:47.433Z,77.83
2019-04-07T17:15:13.688Z,78.11
2019-04-07T17:17:40.076Z,77.93
2019-04-07T17:20:06.887Z,78.14
2019-04-07T17:22:34.776Z,78.12
2019-04-07T17:25:04.156Z,78.45
2019-04-07T17:27:29.339Z,78.61
2019-04-07T17:29:56.548Z,78.99
2019-04-07T17:32:24.270Z,78.91
2019-04-07T17:34:51.962Z,79.48
2019-04-07T17:37:18.195Z,79.36
2019-04-07T17:42:32.364Z,78.92
2019-04-07T17:50:42.234Z,79.08
2019-04-07T17:53:28.587Z,78.82
2019-04-07T17:56:18.011Z,78.97
2019-04-07T17:59:02.556Z,78.50
2019-04-07T18:01:52.441Z,79.31
2019-04-07T18:07:12.046Z,78.42
2019-04-07T18:09:58.202Z,79.42
2019-04-07T18:12:47.906Z,79.36
2019-04-07T18:15:32.221Z,79.89
2019-04-07T18:18:21.313Z,80.44
2019-04-07T18:26:16.879Z,81.65
2019-04-07T18:29:03.856Z,82.27
2019-04-07T18:31:50.741Z,82.42
2019-04-07T18:34:37.683Z,82.20
2019-04-07T18:37:25.197Z,82.87
2019-04-07T18:40:11.987Z,83.23
2019-04-07T18:42:58.060Z,83.34
2019-04-07T18:45:47.949Z,83.46
2019-04-07T18:48:31.979Z,83.86
2019-04-07T18:56:27.042Z,85.36
2019-04-07T18:59:13.124Z,85.28
2019-04-07T19:10:10.638Z,85.77
2019-04-07T19:13:03.256Z,86.12
2019-04-07T19:18:29.234Z,86.58
2019-04-07T19:21:16.222Z,86.74
2019-04-07T19:24:02.478Z,86.09
2019-04-07T19:26:52.330Z,86.35
2019-04-07T19:29:39.893Z,86.69
2019-04-07T19:37:48.293Z,86.38
2019-04-07T19:40:35.988Z,86.64
2019-04-07T19:46:09.926Z,87.19
2019-04-07T19:48:55.940Z,87.00
2019-04-07T19:51:41.947Z,86.99
2019-04-07T19:54:27.947Z,87.04
2019-04-07T19:57:13.959Z,86.49
2019-04-07T20:02:53.759Z,86.74
2019-04-07T20:05:40.803Z,85.33
2019-04-07T20:08:26.985Z,86.19
2019-04-07T20:11:13.897Z,85.75
2019-04-07T20:19:33.312Z,85.04
2019-04-07T20:22:15.721Z,84.08
2019-04-07T20:25:01.734Z,85.40
2019-04-07T20:27:47.746Z,84.59
2019-04-07T20:30:33.848Z,83.54
2019-04-07T20:33:20.625Z,82.93
2019-04-07T20:36:06.736Z,83.86
2019-04-07T20:38:53.290Z,82.87
2019-04-07T20:41:40.159Z,83.17
2019-04-07T20:47:13.848Z,82.37
2019-04-07T20:50:00.122Z,81.59
2019-04-07T20:52:46.155Z,82.27
2019-04-07T20:55:33.564Z,80.63
2019-04-07T20:58:23.797Z,81.18
2019-04-07T21:01:10.996Z,81.37
2019-04-07T21:03:55.865Z,81.60
2019-04-07T21:06:42.148Z,81.99
2019-04-07T21:09:32.312Z,80.36
2019-04-07T21:14:55.526Z,81.39
2019-04-07T21:17:41.525Z,79.76
2019-04-07T21:20:27.815Z,79.46
2019-04-07T21:23:16.232Z,79.17
2019-04-07T21:28:38.953Z,79.01
2019-04-07T21:31:26.061Z,79.90
2019-04-07T21:36:46.362Z,78.56
2019-04-07T21:39:33.124Z,79.64
2019-04-07T21:42:21.024Z,78.70
2019-04-07T21:45:07.391Z,78.77
2019-04-07T21:47:57.339Z,79.17
2019-04-07T21:53:16.369Z,79.17
2019-04-07T21:56:02.389Z,77.84
2019-04-07T21:58:48.639Z,78.12
2019-04-07T22:01:37.729Z,77.70
2019-04-07T22:09:50.708Z,76.76
2019-04-07T22:12:15.626Z,77.28
2019-04-07T22:14:43.007Z,77.39
2019-04-07T22:17:10.008Z,77.35
2019-04-07T22:19:36.250Z,76.87
2019-04-07T22:22:02.518Z,76.88
2019-04-07T22:24:34.658Z,77.47
2019-04-07T22:26:57.187Z,76.54
2019-04-07T22:29:24.482Z,77.04
2019-04-07T22:34:39.203Z,76.12
2019-04-07T22:37:05.459Z,74.09
2019-04-07T22:39:32.112Z,75.19
2019-04-07T22:42:00.155Z,75.22
2019-04-07T22:44:28.028Z,74.66
2019-04-07T22:46:54.450Z,73.68
2019-04-07T22:49:20.975Z,73.29
2019-04-07T22:51:49.492Z,74.44
2019-04-07T22:54:15.400Z,73.96
2019-04-07T22:56:42.469Z,73.46
2019-04-07T22:59:11.211Z,72.69
2019-04-07T23:01:38.933Z,73.21
2019-04-07T23:04:06.121Z,71.56
2019-04-07T23:06:32.977Z,71.05
2019-04-07T23:09:01.489Z,70.28
2019-04-07T23:11:28.679Z,72.95
2019-04-07T23:13:55.492Z,71.79
2019-04-07T23:16:23.963Z,70.02
2019-04-07T23:18:52.102Z,72.00
2019-04-07T23:21:19.429Z,71.71
2019-04-07T23:23:46.244Z,69.54
2019-04-07T23:26:13.917Z,69.41
2019-04-07T23:28:40.272Z,69.82
2019-04-07T23:31:07.440Z,70.96
2019-04-07T23:33:34.863Z,69.26
2019-04-07T23:36:01.757Z,69.07
2019-04-07T23:38:30.325Z,69.15
2019-04-07T23:40:57.747Z,68.68
2019-04-07T23:43:25.592Z,69.75
2019-04-07T23:45:51.846Z,67.90
2019-04-07T23:48:18.083Z,66.91
2019-04-07T23:50:44.334Z,68.43
2019-04-07T23:53:50.660Z,67.35
2019-04-07T23:56:17.659Z,68.53
2019-04-07T23:58:45.613Z,67.96
